createdAt,value
2023-02-14T00:01:20.743Z,54.13
2023-02-14T00:03:49.522Z,59.35
2023-02-14T00:06:16.502Z,59.50
2023-02-14T00:08:45.135Z,65.07
2023-02-14T00:11:13.405Z,73.57
2023-02-14T00:14:00.437Z,65.30
2023-02-14T00:16:27.420Z,78.03
2023-02-14T00:19:12.395Z,89.55
2023-02-14T00:21:41.090Z,99.60
2023-02-14T00:24:13.697Z,90.25
2023-02-14T00:26:41.108Z,94.20
2023-02-14T00:29:22.517Z,102.68
2023-02-14T00:31:51.346Z,105.82
2023-02-14T00:34:19.214Z,108.38
2023-02-14T00:36:47.060Z,103.47
2023-02-14T00:39:16.964Z,115.95
2023-02-14T00:41:44.584Z,108.57
2023-02-14T00:44:13.545Z,100.85
2023-02-14T00:46:41.279Z,118.18
2023-02-14T00:49:08.222Z,117.55
2023-02-14T00:51:35.606Z,101.25
2023-02-14T00:54:03.468Z,109.22
2023-02-14T00:56:31.684Z,108.38
2023-02-14T00:58:58.590Z,108.35
2023-02-14T01:01:25.611Z,112.18
2023-02-14T01:03:52.587Z,104.45
2023-02-14T01:06:19.880Z,109.82
2023-02-14T01:08:46.676Z,108.05
2023-02-14T01:11:19.997Z,111.38
2023-02-14T01:13:48.482Z,115.95
2023-02-14T01:16:20.542Z,112.65
2023-02-14T01:18:48.378Z,128.63
2023-02-14T01:21:23.701Z,126.32
2023-02-14T01:24:00.760Z,126.50
2023-02-14T01:26:28.895Z,132.73
2023-02-14T01:28:56.725Z,132.02
2023-02-14T01:31:28.887Z,135.13
2023-02-14T01:33:57.834Z,134.77
2023-02-14T01:36:30.677Z,134.98
2023-02-14T01:39:00.264Z,118.72
2023-02-14T01:41:30.437Z,113.82
2023-02-14T01:46:31.298Z,113.85
2023-02-14T01:49:21.187Z,116.00
2023-02-14T01:52:22.553Z,113.43
2023-02-14T01:54:54.468Z,113.00
2023-02-14T01:57:24.729Z,111.97
2023-02-14T02:02:24.254Z,120.68
2023-02-14T02:04:56.217Z,109.93
2023-02-14T02:07:29.335Z,110.03
2023-02-14T02:10:02.184Z,117.50
2023-02-14T02:15:00.315Z,118.75
2023-02-14T02:17:57.134Z,114.90
2023-02-14T02:20:36.098Z,118.38
2023-02-14T02:23:03.571Z,124.05
2023-02-14T02:25:52.345Z,116.43
2023-02-14T02:28:36.611Z,110.65
2023-02-14T02:31:21.751Z,111.90
2023-02-14T02:34:14.705Z,100.20
2023-02-14T02:36:56.745Z,104.35
2023-02-14T02:39:59.076Z,95.88
2023-02-14T02:42:57.220Z,97.72
2023-02-14T02:45:33.068Z,119.00
2023-02-14T02:48:09.918Z,118.05
2023-02-14T02:51:02.397Z,143.23
2023-02-14T02:53:43.923Z,112.63
2023-02-14T02:56:45.908Z,108.20
2023-02-14T02:59:27.833Z,99.63
2023-02-14T03:02:14.622Z,108.63
2023-02-14T03:04:54.611Z,101.90
2023-02-14T03:07:35.018Z,106.93
2023-02-14T03:10:12.815Z,100.93
2023-02-14T03:13:24.457Z,102.90
2023-02-14T03:16:14.578Z,87.47
2023-02-14T03:19:11.807Z,75.60
2023-02-14T03:21:57.162Z,76.32
2023-02-14T03:24:41.666Z,70.00
2023-02-14T03:27:34.083Z,69.65
2023-02-14T03:30:04.117Z,59.55
2023-02-14T03:32:50.171Z,61.22
2023-02-14T03:35:30.772Z,59.70
2023-02-14T03:38:03.272Z,63.10
2023-02-14T03:40:40.513Z,61.67
2023-02-14T03:43:19.353Z,67.00
2023-02-14T03:45:54.944Z,67.18
2023-02-14T03:48:25.054Z,68.85
2023-02-14T03:50:54.053Z,64.22
2023-02-14T03:53:26.177Z,70.35
2023-02-14T03:56:03.889Z,68.05
2023-02-14T03:58:35.128Z,68.25
2023-02-14T04:01:29.452Z,65.07
2023-02-14T04:03:59.204Z,62.00
2023-02-14T04:06:26.512Z,68.10
2023-02-14T04:08:53.498Z,67.43
2023-02-14T04:11:20.976Z,72.90
2023-02-14T04:13:48.620Z,71.70
2023-02-14T04:16:15.413Z,71.95
2023-02-14T04:19:01.538Z,73.68
2023-02-14T04:21:28.461Z,74.72
2023-02-14T04:23:55.395Z,75.55
2023-02-14T04:26:22.190Z,72.28
2023-02-14T04:28:48.955Z,71.35
2023-02-14T04:31:16.029Z,63.45
2023-02-14T04:33:44.441Z,53.47
2023-02-14T04:36:11.249Z,55.53
2023-02-14T04:38:38.174Z,57.67
2023-02-14T04:41:05.057Z,51.75
2023-02-14T04:43:31.966Z,67.20
2023-02-14T04:45:58.794Z,65.30
2023-02-14T04:48:25.604Z,57.88
2023-02-14T04:50:53.724Z,62.65
2023-02-14T04:53:21.305Z,64.78
2023-02-14T04:55:51.451Z,66.18
2023-02-14T04:58:18.496Z,66.57
2023-02-14T05:00:45.424Z,60.72
2023-02-14T05:03:12.380Z,68.40
2023-02-14T05:05:39.306Z,72.07
2023-02-14T05:08:06.132Z,72.95
2023-02-14T05:10:33.034Z,74.68
2023-02-14T05:13:01.226Z,81.75
2023-02-14T05:15:28.052Z,72.10
2023-02-14T05:17:54.918Z,76.88
2023-02-14T05:20:21.701Z,73.10
2023-02-14T05:22:48.581Z,70.35
2023-02-14T05:25:15.411Z,65.75
2023-02-14T05:27:42.489Z,68.10
2023-02-14T05:30:10.146Z,69.90
2023-02-14T05:32:37.314Z,70.38
2023-02-14T05:35:04.636Z,71.35
2023-02-14T05:37:31.745Z,73.35
2023-02-14T05:39:58.618Z,70.63
2023-02-14T05:42:25.522Z,69.25
2023-02-14T05:44:52.357Z,69.28
2023-02-14T05:47:19.218Z,69.38
2023-02-14T05:49:45.984Z,69.53
2023-02-14T05:52:12.817Z,70.13
2023-02-14T05:54:39.675Z,78.05
2023-02-14T05:57:06.628Z,76.15
2023-02-14T05:59:33.453Z,86.45
2023-02-14T06:02:00.387Z,79.28
2023-02-14T06:04:27.385Z,89.72
2023-02-14T06:06:54.204Z,85.10
2023-02-14T06:09:21.166Z,83.43
2023-02-14T06:11:48.072Z,91.55
2023-02-14T06:14:15.021Z,90.35
2023-02-14T06:16:42.122Z,85.70
2023-02-14T06:19:08.994Z,83.40
2023-02-14T06:21:38.451Z,80.03
2023-02-14T06:24:05.348Z,75.07
2023-02-14T06:26:33.407Z,77.10
2023-02-14T06:29:00.298Z,84.35
2023-02-14T06:31:27.353Z,83.03
2023-02-14T06:33:55.088Z,80.70
2023-02-14T06:36:22.974Z,85.63
2023-02-14T06:38:50.644Z,92.15
2023-02-14T06:41:18.121Z,84.25
2023-02-14T06:43:48.869Z,80.03
2023-02-14T06:46:17.678Z,80.75
2023-02-14T06:48:47.507Z,74.75
2023-02-14T06:51:14.442Z,72.05
2023-02-14T06:53:41.351Z,74.20
2023-02-14T06:56:08.235Z,77.53
2023-02-14T06:58:35.457Z,75.70
2023-02-14T07:01:03.008Z,80.20
2023-02-14T07:03:30.067Z,85.13
2023-02-14T07:05:58.354Z,81.53
2023-02-14T07:08:26.621Z,89.35
2023-02-14T07:10:59.837Z,84.93
2023-02-14T07:13:27.297Z,83.47
2023-02-14T07:15:54.258Z,80.45
2023-02-14T07:18:21.417Z,84.40
2023-02-14T07:20:50.262Z,83.55
2023-02-14T07:23:17.682Z,82.68
2023-02-14T07:25:44.698Z,77.13
2023-02-14T07:28:11.859Z,79.20
2023-02-14T07:30:38.834Z,77.70
2023-02-14T07:33:08.496Z,83.72
2023-02-14T07:35:35.578Z,74.25
2023-02-14T07:38:02.456Z,73.03
2023-02-14T07:40:30.160Z,75.78
2023-02-14T07:43:01.168Z,72.60
2023-02-14T07:45:28.116Z,80.47
2023-02-14T07:47:55.743Z,73.68
2023-02-14T07:50:23.567Z,72.03
2023-02-14T07:52:50.824Z,74.40
2023-02-14T07:55:19.390Z,74.57
2023-02-14T07:57:48.566Z,77.53
2023-02-14T08:00:16.039Z,65.70
2023-02-14T08:02:42.967Z,69.60
2023-02-14T08:05:10.191Z,60.47
2023-02-14T08:07:37.054Z,77.25
2023-02-14T08:10:04.129Z,69.93
2023-02-14T08:12:49.421Z,66.97
2023-02-14T08:15:37.310Z,73.13
2023-02-14T08:18:04.372Z,71.85
2023-02-14T08:20:31.588Z,67.53
2023-02-14T08:22:58.546Z,62.88
2023-02-14T08:25:25.420Z,65.47
2023-02-14T08:27:52.251Z,70.00
2023-02-14T08:30:19.323Z,68.53
2023-02-14T08:32:46.463Z,63.75
2023-02-14T08:35:14.577Z,57.95
2023-02-14T08:37:41.520Z,69.10
2023-02-14T08:40:09.130Z,59.35
2023-02-14T08:42:36.158Z,59.80
2023-02-14T08:45:03.543Z,60.30
2023-02-14T08:47:35.913Z,59.03
2023-02-14T08:50:07.201Z,62.20
2023-02-14T08:52:34.159Z,57.50
2023-02-14T08:55:04.763Z,59.20
2023-02-14T08:57:34.549Z,52.67
2023-02-14T09:00:04.807Z,49.85
2023-02-14T09:05:00.492Z,53.03
2023-02-14T09:07:27.439Z,53.55
2023-02-14T09:09:54.301Z,50.85
2023-02-14T09:12:21.289Z,47.60
2023-02-14T09:14:48.267Z,51.97
2023-02-14T09:17:16.419Z,55.78
2023-02-14T09:19:43.619Z,52.28
2023-02-14T09:22:11.599Z,53.13
2023-02-14T09:24:40.040Z,55.33
2023-02-14T09:27:07.940Z,51.80
2023-02-14T09:29:34.953Z,54.53
2023-02-14T09:32:02.445Z,59.85
2023-02-14T09:34:30.223Z,56.70
2023-02-14T09:36:57.174Z,50.20
2023-02-14T09:39:24.112Z,53.30
2023-02-14T09:41:53.589Z,53.47
2023-02-14T09:44:52.431Z,54.45
2023-02-14T09:47:39.495Z,56.38
2023-02-14T09:50:31.745Z,46.70
2023-02-14T09:53:02.989Z,39.83
2023-02-14T09:55:44.638Z,36.17
2023-02-14T09:58:31.021Z,36.03
2023-02-14T10:01:16.759Z,26.20
2023-02-14T10:04:18.871Z,26.77
2023-02-14T10:07:00.819Z,33.28
2023-02-14T10:09:33.683Z,28.17
2023-02-14T10:12:02.124Z,28.95
2023-02-14T10:14:40.444Z,33.63
2023-02-14T10:17:19.561Z,44.15
2023-02-14T10:19:54.213Z,42.53
2023-02-14T10:22:27.495Z,43.88
2023-02-14T10:25:04.855Z,49.75
2023-02-14T10:27:44.852Z,43.10
2023-02-14T10:30:21.456Z,43.80
2023-02-14T10:33:13.745Z,38.63
2023-02-14T10:35:50.559Z,31.15
2023-02-14T10:39:03.231Z,41.58
2023-02-14T10:42:14.974Z,41.20
2023-02-14T10:44:59.010Z,38.38
2023-02-14T10:47:54.307Z,42.38
2023-02-14T10:50:21.320Z,36.13
2023-02-14T10:53:01.139Z,27.08
2023-02-14T10:55:36.616Z,29.88
2023-02-14T10:58:09.991Z,32.65
2023-02-14T11:01:04.139Z,26.40
2023-02-14T11:03:33.455Z,23.98
2023-02-14T11:06:00.394Z,27.07
2023-02-14T11:08:29.335Z,25.38
2023-02-14T11:11:03.601Z,26.88
2023-02-14T11:13:38.957Z,26.77
2023-02-14T11:16:09.289Z,24.77
2023-02-14T11:18:37.617Z,24.98
2023-02-14T11:21:15.117Z,24.80
2023-02-14T11:23:49.755Z,22.00
2023-02-14T11:26:33.371Z,27.33
2023-02-14T11:29:03.506Z,22.13
2023-02-14T11:33:58.616Z,26.27
2023-02-14T11:36:27.702Z,22.70
2023-02-14T11:39:14.976Z,24.27
2023-02-14T11:41:57.032Z,25.70
2023-02-14T11:44:27.191Z,25.67
2023-02-14T11:49:36.323Z,25.67
2023-02-14T11:52:11.951Z,28.27
2023-02-14T11:54:45.072Z,29.35
2023-02-14T11:57:28.422Z,25.77
2023-02-14T11:59:57.291Z,27.67
2023-02-14T12:02:32.909Z,23.92
2023-02-14T12:05:27.842Z,25.25
2023-02-14T12:07:57.768Z,27.10
2023-02-14T12:10:38.848Z,26.23
2023-02-14T12:13:08.649Z,29.17
2023-02-14T12:15:44.805Z,29.25
2023-02-14T12:18:30.439Z,26.67
2023-02-14T12:21:16.256Z,28.85
2023-02-14T12:24:18.785Z,28.77
2023-02-14T12:27:04.024Z,24.70
2023-02-14T12:29:37.595Z,30.10
2023-02-14T12:32:25.400Z,25.77
2023-02-14T12:34:58.080Z,25.42
2023-02-14T12:37:50.721Z,26.30
2023-02-14T12:40:43.712Z,24.60
2023-02-14T12:43:23.220Z,24.50
2023-02-14T12:45:55.960Z,26.58
2023-02-14T12:48:50.437Z,46.65
2023-02-14T12:51:29.527Z,34.05
2023-02-14T12:54:30.394Z,27.67
2023-02-14T12:57:08.935Z,25.63
2023-02-14T12:59:54.504Z,28.92
2023-02-14T13:02:43.247Z,27.63
2023-02-14T13:05:56.965Z,26.02
2023-02-14T13:08:35.587Z,25.75
2023-02-14T13:11:39.843Z,26.65
2023-02-14T13:14:27.696Z,30.73
2023-02-14T13:17:15.364Z,29.00
2023-02-14T13:19:48.163Z,29.25
2023-02-14T13:22:20.662Z,26.20
2023-02-14T13:24:51.370Z,28.80
2023-02-14T13:27:39.053Z,28.42
2023-02-14T13:30:32.294Z,30.35
2023-02-14T13:33:06.381Z,29.75
2023-02-14T13:35:34.539Z,32.03
2023-02-14T13:38:06.834Z,26.95
2023-02-14T13:40:35.843Z,24.65
2023-02-14T13:43:02.873Z,25.33
2023-02-14T13:45:30.296Z,23.40
2023-02-14T13:48:06.139Z,24.25
2023-02-14T13:50:37.377Z,28.30
2023-02-14T13:53:04.274Z,27.45
2023-02-14T13:55:37.511Z,27.25
2023-02-14T13:58:07.758Z,28.48
2023-02-14T14:00:41.972Z,27.27
2023-02-14T14:03:27.724Z,26.20
2023-02-14T14:05:57.573Z,27.45
2023-02-14T14:08:25.098Z,29.02
2023-02-14T14:11:00.808Z,24.13
2023-02-14T14:13:42.504Z,27.27
2023-02-14T14:16:25.735Z,26.55
2023-02-14T14:19:30.821Z,23.27
2023-02-14T14:22:05.148Z,21.63
2023-02-14T14:24:40.292Z,30.00
2023-02-14T14:27:15.402Z,21.65
2023-02-14T14:29:52.639Z,23.00
2023-02-14T14:32:24.869Z,19.75
2023-02-14T14:34:57.564Z,23.15
2023-02-14T14:37:31.082Z,20.15
2023-02-14T14:40:05.023Z,24.10
2023-02-14T14:42:41.321Z,26.88
2023-02-14T14:45:20.804Z,24.83
2023-02-14T14:47:48.982Z,25.45
2023-02-14T14:50:36.460Z,22.35
2023-02-14T14:53:09.713Z,26.92
2023-02-14T14:55:38.537Z,24.15
2023-02-14T14:58:11.203Z,28.25
2023-02-14T15:00:42.386Z,24.63
2023-02-14T15:03:12.231Z,25.25
2023-02-14T15:05:42.298Z,21.23
2023-02-14T15:11:03.011Z,25.42
2023-02-14T15:13:57.554Z,21.45
2023-02-14T15:16:45.123Z,21.85
2023-02-14T15:19:37.269Z,24.27
2023-02-14T15:22:07.779Z,23.27
2023-02-14T15:24:38.566Z,30.88
2023-02-14T15:27:14.737Z,27.23
2023-02-14T15:29:42.033Z,48.78
2023-02-14T15:32:11.211Z,29.25
2023-02-14T15:34:38.301Z,18.65
2023-02-14T15:37:07.175Z,25.10
2023-02-14T15:39:43.146Z,24.05
2023-02-14T15:42:30.019Z,20.00
2023-02-14T15:45:25.578Z,20.33
2023-02-14T15:47:55.907Z,23.30
2023-02-14T15:50:27.991Z,22.15
2023-02-14T15:53:07.104Z,24.80
2023-02-14T15:55:36.200Z,22.35
2023-02-14T15:58:17.984Z,23.58
2023-02-14T16:00:45.293Z,24.20
2023-02-14T16:03:19.797Z,25.60
2023-02-14T16:05:48.520Z,23.15
2023-02-14T16:08:42.284Z,23.38
2023-02-14T16:11:30.869Z,22.05
2023-02-14T16:13:58.277Z,24.42
2023-02-14T16:16:25.240Z,24.70
2023-02-14T16:18:56.825Z,23.75
2023-02-14T16:21:29.554Z,28.73
2023-02-14T16:24:10.877Z,28.30
2023-02-14T16:26:45.034Z,31.58
2023-02-14T16:29:17.750Z,35.70
2023-02-14T16:32:14.685Z,31.15
2023-02-14T16:34:42.644Z,28.67
2023-02-14T16:37:20.065Z,31.77
2023-02-14T16:39:47.698Z,30.98
2023-02-14T16:42:18.783Z,41.15
2023-02-14T16:44:47.210Z,44.90
2023-02-14T16:47:15.847Z,34.65
2023-02-14T16:49:42.784Z,37.80
2023-02-14T16:52:23.930Z,36.38
2023-02-14T16:54:51.026Z,38.92
2023-02-14T16:57:23.183Z,35.63
2023-02-14T16:59:50.969Z,39.13
2023-02-14T17:02:19.214Z,39.65
2023-02-14T17:04:46.322Z,36.92
2023-02-14T17:07:15.712Z,35.58
2023-02-14T17:09:48.562Z,34.42
2023-02-14T17:12:24.747Z,48.03
2023-02-14T17:14:54.863Z,48.13
2023-02-14T17:19:50.366Z,36.53
2023-02-14T17:22:19.277Z,38.13
2023-02-14T17:24:46.084Z,37.40
2023-02-14T17:27:12.973Z,42.42
2023-02-14T17:29:39.770Z,42.30
2023-02-14T17:32:06.766Z,42.25
2023-02-14T17:34:34.039Z,39.78
2023-02-14T17:37:00.995Z,47.90
2023-02-14T17:39:27.844Z,46.75
2023-02-14T17:41:56.863Z,41.25
2023-02-14T17:44:23.947Z,40.55
2023-02-14T17:46:51.104Z,41.17
2023-02-14T17:49:18.019Z,38.55
2023-02-14T17:51:44.962Z,43.10
2023-02-14T17:54:12.703Z,39.40
2023-02-14T17:56:39.759Z,44.67
2023-02-14T17:59:06.567Z,44.83
2023-02-14T18:01:34.636Z,42.28
2023-02-14T18:04:01.570Z,40.20
2023-02-14T18:06:28.806Z,43.42
2023-02-14T18:08:58.675Z,42.90
2023-02-14T18:11:28.028Z,41.65
2023-02-14T18:13:56.033Z,44.27
2023-02-14T18:16:24.918Z,41.15
2023-02-14T18:18:52.645Z,44.22
2023-02-14T18:21:24.712Z,42.65
2023-02-14T18:23:52.075Z,45.22
2023-02-14T18:26:19.654Z,44.45
2023-02-14T18:28:46.698Z,44.80
2023-02-14T18:31:16.179Z,39.00
2023-02-14T18:33:43.833Z,41.90
2023-02-14T18:36:13.750Z,43.20
2023-02-14T18:38:42.132Z,41.45
2023-02-14T18:41:12.067Z,42.97
2023-02-14T18:43:41.144Z,47.33
2023-02-14T18:46:10.512Z,44.17
2023-02-14T18:48:37.990Z,45.45
2023-02-14T18:51:28.648Z,40.80
2023-02-14T18:53:57.956Z,41.88
2023-02-14T18:56:29.045Z,40.53
2023-02-14T18:59:01.334Z,42.65
2023-02-14T19:01:36.972Z,41.88
2023-02-14T19:04:06.486Z,43.42
2023-02-14T19:06:34.275Z,44.30
2023-02-14T19:09:02.718Z,44.20
2023-02-14T19:11:31.891Z,43.95
2023-02-14T19:14:01.358Z,42.80
2023-02-14T19:16:32.285Z,43.33
2023-02-14T19:19:01.026Z,47.55
2023-02-14T19:21:30.899Z,41.45
2023-02-14T19:23:58.528Z,42.45
2023-02-14T19:26:35.023Z,44.50
2023-02-14T19:29:06.296Z,43.15
2023-02-14T19:31:37.622Z,42.78
2023-02-14T19:34:06.868Z,46.55
2023-02-14T19:36:36.458Z,46.05
2023-02-14T19:39:03.812Z,43.72
2023-02-14T19:41:34.529Z,42.22
2023-02-14T19:44:06.769Z,45.90
2023-02-14T19:46:34.774Z,46.42
2023-02-14T19:49:01.956Z,47.00
2023-02-14T19:51:31.225Z,41.80
2023-02-14T19:53:59.984Z,43.90
2023-02-14T19:56:30.477Z,50.80
2023-02-14T19:58:58.046Z,48.28
2023-02-14T20:01:35.152Z,44.40
2023-02-14T20:04:03.098Z,44.08
2023-02-14T20:06:36.142Z,41.83
2023-02-14T20:09:04.471Z,44.63
2023-02-14T20:11:46.671Z,45.20
2023-02-14T20:14:14.749Z,45.53
2023-02-14T20:16:41.748Z,43.55
2023-02-14T20:19:13.855Z,47.20
2023-02-14T20:21:42.197Z,50.80
2023-02-14T20:24:10.965Z,50.28
2023-02-14T20:26:41.786Z,47.72
2023-02-14T20:29:10.670Z,45.33
2023-02-14T20:31:41.730Z,49.40
2023-02-14T20:34:09.287Z,52.92
2023-02-14T20:36:36.834Z,46.50
2023-02-14T20:39:06.210Z,49.28
2023-02-14T20:41:35.007Z,52.28
2023-02-14T20:44:07.913Z,47.88
2023-02-14T20:46:35.534Z,51.83
2023-02-14T20:49:03.498Z,49.50
2023-02-14T20:51:30.513Z,50.22
2023-02-14T20:53:57.570Z,49.95
2023-02-14T20:56:27.710Z,60.25
2023-02-14T20:59:01.779Z,53.53
2023-02-14T21:01:28.884Z,59.35
2023-02-14T21:03:56.182Z,54.03
2023-02-14T21:06:26.492Z,50.38
2023-02-14T21:08:53.579Z,48.33
2023-02-14T21:11:22.859Z,50.85
2023-02-14T21:13:50.250Z,49.70
2023-02-14T21:16:19.829Z,49.85
2023-02-14T21:18:51.937Z,53.88
2023-02-14T21:21:36.408Z,56.42
2023-02-14T21:24:08.908Z,52.15
2023-02-14T21:26:37.493Z,49.25
2023-02-14T21:29:05.142Z,55.58
2023-02-14T21:31:32.690Z,48.72
2023-02-14T21:34:02.053Z,47.42
2023-02-14T21:36:31.656Z,47.33
2023-02-14T21:38:59.882Z,46.85
2023-02-14T21:41:29.487Z,52.22
2023-02-14T21:44:01.739Z,48.45
2023-02-14T21:46:31.913Z,48.72
2023-02-14T21:49:19.541Z,46.72
2023-02-14T21:51:48.010Z,46.40
2023-02-14T21:54:15.711Z,51.67
2023-02-14T21:56:43.044Z,54.65
2023-02-14T21:59:09.950Z,49.45
2023-02-14T22:01:39.178Z,51.03
2023-02-14T22:04:10.861Z,49.15
2023-02-14T22:06:40.092Z,51.10
2023-02-14T22:09:07.284Z,50.33
2023-02-14T22:11:34.892Z,50.33
2023-02-14T22:14:02.169Z,52.78
2023-02-14T22:16:29.514Z,52.70
2023-02-14T22:18:58.863Z,53.88
2023-02-14T22:21:27.220Z,57.78
2023-02-14T22:23:55.162Z,48.50
2023-02-14T22:26:24.735Z,48.60
2023-02-14T22:28:59.809Z,51.53
2023-02-14T22:31:29.829Z,50.40
2023-02-14T22:33:59.303Z,51.80
2023-02-14T22:36:26.177Z,46.70
2023-02-14T22:38:53.073Z,52.25
2023-02-14T22:41:23.334Z,48.03
2023-02-14T22:46:21.478Z,49.42
2023-02-14T22:48:50.319Z,50.53
2023-02-14T22:51:31.536Z,48.30
2023-02-14T22:54:01.122Z,52.72
2023-02-14T22:56:39.841Z,49.20
2023-02-14T22:59:09.178Z,46.35
2023-02-14T23:01:36.763Z,50.43
2023-02-14T23:04:04.471Z,46.92
2023-02-14T23:06:34.473Z,50.13
2023-02-14T23:09:03.956Z,46.58
2023-02-14T23:11:33.077Z,45.17
2023-02-14T23:14:18.344Z,48.35
2023-02-14T23:17:04.449Z,50.10
2023-02-14T23:19:53.138Z,51.60
2023-02-14T23:22:40.103Z,52.70
2023-02-14T23:25:09.911Z,58.72
2023-02-14T23:27:45.436Z,62.17
2023-02-14T23:30:18.837Z,65.70
2023-02-14T23:32:45.831Z,52.08
2023-02-14T23:35:12.913Z,56.50
2023-02-14T23:37:42.659Z,62.83
2023-02-14T23:40:10.116Z,53.80
2023-02-14T23:42:37.544Z,51.70
2023-02-14T23:45:23.781Z,50.00
2023-02-14T23:47:50.771Z,54.90
2023-02-14T23:50:17.658Z,57.30
2023-02-14T23:52:44.813Z,72.75
2023-02-14T23:55:12.464Z,72.28
2023-02-14T23:57:39.751Z,69.72
